createdAt,value
2022-10-07T00:01:10.728Z,69.44
2022-10-07T00:03:38.684Z,69.67
2022-10-07T00:06:06.433Z,69.88
2022-10-07T00:08:34.012Z,69.70
2022-10-07T00:11:01.656Z,69.80
2022-10-07T00:13:29.287Z,69.62
2022-10-07T00:15:57.524Z,69.61
2022-10-07T00:18:25.244Z,69.26
2022-10-07T00:20:52.953Z,69.77
2022-10-07T00:23:20.544Z,70.13
2022-10-07T00:25:48.381Z,69.61
2022-10-07T00:28:16.420Z,69.96
2022-10-07T00:30:44.020Z,70.06
2022-10-07T00:33:11.636Z,69.81
2022-10-07T00:35:39.517Z,70.39
2022-10-07T00:38:07.090Z,69.67
2022-10-07T00:40:35.252Z,69.78
2022-10-07T00:43:02.896Z,69.90
2022-10-07T00:45:31.197Z,70.11
2022-10-07T00:47:58.767Z,69.96
2022-10-07T00:50:26.734Z,69.82
2022-10-07T00:52:54.901Z,70.05
2022-10-07T00:55:22.491Z,70.40
2022-10-07T00:57:50.576Z,70.36
2022-10-07T01:00:18.431Z,70.11
2022-10-07T01:02:47.858Z,70.21
2022-10-07T01:05:16.233Z,70.31
2022-10-07T01:07:43.952Z,70.29
2022-10-07T01:10:12.188Z,70.10
2022-10-07T01:12:39.826Z,70.14
2022-10-07T01:15:08.365Z,70.16
2022-10-07T01:17:36.651Z,70.30
2022-10-07T01:20:04.647Z,70.66
2022-10-07T01:22:32.202Z,70.27
2022-10-07T01:24:59.729Z,70.47
2022-10-07T01:27:27.318Z,70.75
2022-10-07T01:29:56.224Z,70.74
2022-10-07T01:32:23.832Z,70.60
2022-10-07T01:34:51.556Z,70.74
2022-10-07T01:37:19.133Z,70.54
2022-10-07T01:39:46.678Z,70.73
2022-10-07T01:42:15.527Z,70.39
2022-10-07T01:44:43.950Z,70.86
2022-10-07T01:47:11.500Z,70.85
2022-10-07T01:49:39.089Z,70.97
2022-10-07T01:52:06.621Z,70.73
2022-10-07T01:54:34.646Z,70.72
2022-10-07T01:57:02.277Z,71.01
2022-10-07T01:59:30.127Z,70.83
2022-10-07T02:01:57.850Z,71.02
2022-10-07T02:04:25.816Z,71.05
2022-10-07T02:06:53.935Z,70.93
2022-10-07T02:09:21.614Z,70.79
2022-10-07T02:11:49.225Z,71.16
2022-10-07T02:14:16.805Z,70.36
2022-10-07T02:16:44.334Z,70.64
2022-10-07T02:19:12.878Z,70.92
2022-10-07T02:21:40.444Z,70.72
2022-10-07T02:24:07.995Z,70.92
2022-10-07T02:26:36.021Z,71.35
2022-10-07T02:29:03.595Z,71.10
2022-10-07T02:31:31.849Z,71.06
2022-10-07T02:33:59.548Z,70.91
2022-10-07T02:36:27.095Z,71.23
2022-10-07T02:38:54.653Z,71.13
2022-10-07T02:41:31.569Z,71.24
2022-10-07T02:43:59.226Z,71.06
2022-10-07T02:46:26.872Z,71.01
2022-10-07T02:48:57.043Z,71.04
2022-10-07T02:51:24.609Z,71.29
2022-10-07T02:53:52.179Z,71.41
2022-10-07T02:56:20.390Z,70.80
2022-10-07T02:58:47.997Z,70.99
2022-10-07T03:01:17.522Z,71.37
2022-10-07T03:03:45.971Z,71.02
2022-10-07T03:06:13.564Z,71.21
2022-10-07T03:08:41.937Z,71.58
2022-10-07T03:11:09.902Z,71.14
2022-10-07T03:13:37.492Z,71.18
2022-10-07T03:16:05.563Z,70.81
2022-10-07T03:18:33.251Z,71.31
2022-10-07T03:21:01.456Z,70.87
2022-10-07T03:23:29.310Z,70.89
2022-10-07T03:25:56.906Z,71.18
2022-10-07T03:28:24.490Z,71.04
2022-10-07T03:30:52.124Z,70.86
2022-10-07T03:33:20.311Z,71.47
2022-10-07T03:35:47.892Z,71.57
2022-10-07T03:38:15.431Z,71.37
2022-10-07T03:40:43.019Z,71.29
2022-10-07T03:43:10.592Z,71.77
2022-10-07T03:45:38.816Z,71.45
2022-10-07T03:48:06.464Z,71.38
2022-10-07T03:50:34.004Z,71.47
2022-10-07T03:53:01.979Z,71.25
2022-10-07T03:55:29.593Z,72.02
2022-10-07T03:57:59.751Z,71.73
2022-10-07T04:00:27.463Z,71.71
2022-10-07T04:02:55.079Z,71.60
2022-10-07T04:05:22.892Z,71.81
2022-10-07T04:07:50.449Z,71.84
2022-10-07T04:10:18.763Z,71.66
2022-10-07T04:12:48.156Z,71.76
2022-10-07T04:15:15.686Z,71.72
2022-10-07T04:17:43.400Z,71.99
2022-10-07T04:20:11.006Z,71.35
2022-10-07T04:22:39.695Z,71.65
2022-10-07T04:25:24.750Z,71.09
2022-10-07T04:27:52.556Z,71.68
2022-10-07T04:30:20.131Z,71.25
2022-10-07T04:32:48.314Z,71.66
2022-10-07T04:35:16.155Z,71.87
2022-10-07T04:37:44.030Z,71.57
2022-10-07T04:40:11.852Z,71.73
2022-10-07T04:42:57.285Z,71.05
2022-10-07T04:45:25.167Z,71.98
2022-10-07T04:47:52.746Z,72.23
2022-10-07T04:50:20.335Z,71.64
2022-10-07T04:52:47.951Z,71.35
2022-10-07T04:55:16.008Z,71.54
2022-10-07T04:57:44.105Z,71.37
2022-10-07T05:00:11.958Z,71.82
2022-10-07T05:02:40.107Z,71.66
2022-10-07T05:05:07.689Z,71.40
2022-10-07T05:07:35.635Z,71.73
2022-10-07T05:10:03.250Z,71.82
2022-10-07T05:12:30.813Z,72.02
2022-10-07T05:14:58.439Z,71.83
2022-10-07T05:17:26.029Z,71.70
2022-10-07T05:19:53.950Z,72.01
2022-10-07T05:22:21.752Z,72.19
2022-10-07T05:24:49.323Z,71.98
2022-10-07T05:27:16.900Z,72.22
2022-10-07T05:29:44.493Z,71.80
2022-10-07T05:32:12.527Z,72.49
2022-10-07T05:34:40.186Z,72.35
2022-10-07T05:37:07.855Z,72.19
2022-10-07T05:39:35.930Z,71.75
2022-10-07T05:42:03.521Z,72.34
2022-10-07T05:44:32.636Z,72.31
2022-10-07T05:47:00.444Z,72.19
2022-10-07T05:49:28.033Z,72.10
2022-10-07T05:51:55.779Z,72.03
2022-10-07T05:54:24.449Z,71.52
2022-10-07T05:56:52.432Z,72.21
2022-10-07T05:59:20.694Z,72.42
2022-10-07T06:01:48.824Z,72.35
2022-10-07T06:04:16.514Z,71.75
2022-10-07T06:06:44.156Z,71.59
2022-10-07T06:09:29.625Z,71.65
2022-10-07T06:12:14.476Z,71.64
2022-10-07T06:14:42.526Z,71.55
2022-10-07T06:17:10.118Z,71.74
2022-10-07T06:19:38.178Z,71.38
2022-10-07T06:22:06.388Z,71.82
2022-10-07T06:24:35.402Z,71.18
2022-10-07T06:27:03.339Z,71.51
2022-10-07T06:29:31.046Z,71.41
2022-10-07T06:31:59.039Z,71.01
2022-10-07T06:34:26.784Z,70.78
2022-10-07T06:36:54.387Z,70.93
2022-10-07T06:39:22.350Z,70.68
2022-10-07T06:41:52.596Z,70.90
2022-10-07T06:44:20.838Z,71.14
2022-10-07T06:46:48.506Z,70.62
2022-10-07T06:49:16.351Z,70.95
2022-10-07T06:51:44.422Z,70.49
2022-10-07T06:54:12.032Z,70.64
2022-10-07T06:56:40.979Z,70.29
2022-10-07T06:59:08.677Z,70.37
2022-10-07T07:01:36.353Z,70.26
2022-10-07T07:04:05.631Z,70.49
2022-10-07T07:06:33.256Z,69.97
2022-10-07T07:09:05.760Z,69.72
2022-10-07T07:11:41.855Z,69.13
2022-10-07T07:14:09.756Z,69.47
2022-10-07T07:16:37.531Z,69.15
2022-10-07T07:19:05.853Z,68.52
2022-10-07T07:21:34.758Z,68.42
2022-10-07T07:24:02.613Z,68.25
2022-10-07T07:26:30.687Z,67.67
2022-10-07T07:28:59.292Z,67.93
2022-10-07T07:31:27.328Z,68.07
2022-10-07T07:33:55.603Z,67.49
2022-10-07T07:36:23.278Z,67.43
2022-10-07T07:38:51.777Z,67.19
2022-10-07T07:41:19.444Z,67.32
2022-10-07T07:43:47.630Z,66.96
2022-10-07T07:46:15.510Z,66.61
2022-10-07T07:48:43.437Z,66.39
2022-10-07T07:51:11.224Z,65.92
2022-10-07T07:53:39.385Z,66.32
2022-10-07T07:56:07.661Z,66.27
2022-10-07T07:58:35.444Z,66.31
2022-10-07T08:01:03.450Z,65.39
2022-10-07T08:03:31.680Z,65.03
2022-10-07T08:05:59.450Z,64.42
2022-10-07T08:08:28.055Z,63.93
2022-10-07T08:10:55.972Z,64.11
2022-10-07T08:13:23.771Z,63.96
2022-10-07T08:15:51.930Z,63.16
2022-10-07T08:18:19.869Z,63.25
2022-10-07T08:20:48.111Z,63.20
2022-10-07T08:23:15.946Z,63.16
2022-10-07T08:25:44.126Z,62.15
2022-10-07T08:28:12.148Z,61.86
2022-10-07T08:30:40.346Z,61.15
2022-10-07T08:33:08.582Z,61.66
2022-10-07T08:35:36.640Z,61.64
2022-10-07T08:38:04.394Z,61.10
2022-10-07T08:40:32.527Z,60.59
2022-10-07T08:43:00.527Z,61.02
2022-10-07T08:45:29.943Z,60.56
2022-10-07T08:47:58.257Z,60.58
2022-10-07T08:50:25.946Z,60.65
2022-10-07T08:52:54.876Z,60.62
2022-10-07T08:55:22.836Z,60.68
2022-10-07T08:57:50.731Z,60.55
2022-10-07T09:00:18.946Z,60.28
2022-10-07T09:02:46.884Z,60.18
2022-10-07T09:05:15.567Z,60.16
2022-10-07T09:07:45.698Z,60.52
2022-10-07T09:10:14.175Z,60.27
2022-10-07T09:12:41.902Z,60.29
2022-10-07T09:15:09.668Z,59.91
2022-10-07T09:17:37.785Z,59.72
2022-10-07T09:20:05.602Z,59.06
2022-10-07T09:22:33.970Z,59.57
2022-10-07T09:25:01.969Z,58.98
2022-10-07T09:27:29.956Z,59.27
2022-10-07T09:29:58.169Z,59.09
2022-10-07T09:32:26.120Z,59.16
2022-10-07T09:34:54.652Z,58.58
2022-10-07T09:37:22.648Z,58.94
2022-10-07T09:39:50.526Z,58.55
2022-10-07T09:42:18.638Z,58.66
2022-10-07T09:44:46.399Z,58.12
2022-10-07T09:47:14.566Z,58.16
2022-10-07T09:49:42.499Z,57.92
2022-10-07T09:52:10.140Z,57.81
2022-10-07T09:54:38.060Z,57.25
2022-10-07T09:57:06.370Z,56.76
2022-10-07T09:59:34.631Z,55.51
2022-10-07T10:02:02.766Z,53.87
2022-10-07T10:04:30.774Z,53.33
2022-10-07T10:06:58.758Z,52.30
2022-10-07T10:09:26.513Z,52.49
2022-10-07T10:11:54.832Z,52.42
2022-10-07T10:14:22.635Z,52.90
2022-10-07T10:16:50.615Z,52.87
2022-10-07T10:19:19.576Z,53.66
2022-10-07T10:21:48.221Z,53.69
2022-10-07T10:24:16.533Z,53.33
2022-10-07T10:26:43.431Z,53.10
2022-10-07T10:29:11.439Z,52.68
2022-10-07T10:31:39.462Z,51.04
2022-10-07T10:34:07.287Z,50.42
2022-10-07T10:36:35.383Z,50.31
2022-10-07T10:39:03.329Z,50.13
2022-10-07T10:41:31.379Z,50.43
2022-10-07T10:43:59.394Z,51.12
2022-10-07T10:46:27.408Z,50.43
2022-10-07T10:48:55.926Z,49.72
2022-10-07T10:51:28.449Z,48.80
2022-10-07T10:53:56.945Z,49.08
2022-10-07T10:56:24.936Z,50.35
2022-10-07T10:58:54.444Z,51.23
2022-10-07T11:01:24.756Z,51.75
2022-10-07T11:03:52.679Z,52.48
2022-10-07T11:06:20.539Z,52.82
2022-10-07T11:08:48.986Z,52.42
2022-10-07T11:11:16.690Z,52.47
2022-10-07T11:13:47.576Z,52.36
2022-10-07T11:16:15.519Z,51.86
2022-10-07T11:18:43.507Z,51.29
2022-10-07T11:21:12.193Z,50.42
2022-10-07T11:23:41.593Z,49.36
2022-10-07T11:26:10.724Z,48.74
2022-10-07T11:28:38.689Z,48.07
2022-10-07T11:31:06.410Z,47.51
2022-10-07T11:33:34.286Z,47.06
2022-10-07T11:36:02.060Z,46.60
2022-10-07T11:38:30.365Z,45.81
2022-10-07T11:40:58.119Z,44.71
2022-10-07T11:43:26.588Z,44.40
2022-10-07T11:45:54.679Z,44.52
2022-10-07T11:48:22.763Z,45.20
2022-10-07T11:50:50.988Z,45.81
2022-10-07T11:53:18.817Z,45.78
2022-10-07T11:55:47.884Z,45.31
2022-10-07T11:58:18.512Z,44.93
2022-10-07T12:00:46.479Z,43.57
2022-10-07T12:03:14.585Z,42.85
2022-10-07T12:05:42.894Z,42.75
2022-10-07T12:08:10.839Z,41.92
2022-10-07T12:10:38.985Z,41.50
2022-10-07T12:13:06.973Z,41.77
2022-10-07T12:15:35.371Z,42.33
2022-10-07T12:18:03.079Z,43.60
2022-10-07T12:20:31.050Z,43.88
2022-10-07T12:22:59.057Z,46.01
2022-10-07T12:25:29.386Z,46.27
2022-10-07T12:27:58.070Z,47.07
2022-10-07T12:30:26.048Z,47.02
2022-10-07T12:32:53.890Z,47.50
2022-10-07T12:35:21.912Z,47.49
2022-10-07T12:37:51.911Z,47.55
2022-10-07T12:40:20.141Z,48.28
2022-10-07T12:42:48.182Z,48.25
2022-10-07T12:45:16.005Z,48.48
2022-10-07T12:47:43.787Z,48.83
2022-10-07T12:50:11.967Z,48.97
2022-10-07T12:52:40.995Z,49.32
2022-10-07T12:55:09.716Z,48.88
2022-10-07T12:57:37.500Z,49.69
2022-10-07T13:00:05.613Z,49.52
2022-10-07T13:02:33.942Z,49.24
2022-10-07T13:05:02.174Z,49.42
2022-10-07T13:07:29.940Z,49.44
2022-10-07T13:09:57.875Z,49.40
2022-10-07T13:12:26.428Z,49.42
2022-10-07T13:14:54.432Z,49.91
2022-10-07T13:17:22.523Z,49.51
2022-10-07T13:19:50.143Z,49.93
2022-10-07T13:22:18.010Z,49.68
2022-10-07T13:24:47.243Z,49.24
2022-10-07T13:27:15.602Z,49.35
2022-10-07T13:29:43.592Z,49.22
2022-10-07T13:32:11.319Z,48.82
2022-10-07T13:34:39.136Z,48.54
2022-10-07T13:37:06.974Z,48.01
2022-10-07T13:39:35.018Z,48.00
2022-10-07T13:42:03.641Z,48.04
2022-10-07T13:44:31.451Z,48.01
2022-10-07T13:47:00.168Z,47.43
2022-10-07T13:49:28.092Z,46.89
2022-10-07T13:51:56.467Z,46.22
2022-10-07T13:54:25.124Z,45.21
2022-10-07T13:56:53.644Z,44.70
2022-10-07T13:59:22.229Z,44.44
2022-10-07T14:01:50.171Z,44.43
2022-10-07T14:04:18.125Z,44.95
2022-10-07T14:06:46.384Z,45.44
2022-10-07T14:09:14.237Z,45.50
2022-10-07T14:11:43.458Z,46.24
2022-10-07T14:14:11.563Z,46.14
2022-10-07T14:16:40.289Z,46.32
2022-10-07T14:19:08.400Z,46.15
2022-10-07T14:21:36.263Z,46.23
2022-10-07T14:24:04.095Z,46.45
2022-10-07T14:26:31.916Z,46.38
2022-10-07T14:29:00.046Z,45.32
2022-10-07T14:31:45.727Z,45.70
2022-10-07T14:34:30.919Z,46.08
2022-10-07T14:36:59.265Z,46.40
2022-10-07T14:39:27.297Z,46.22
2022-10-07T14:41:55.550Z,45.98
2022-10-07T14:44:23.341Z,46.23
2022-10-07T14:46:51.454Z,46.07
2022-10-07T14:49:19.318Z,45.74
2022-10-07T14:51:49.385Z,45.54
2022-10-07T14:54:17.426Z,45.07
2022-10-07T14:56:45.236Z,45.20
2022-10-07T14:59:13.420Z,45.08
2022-10-07T15:01:41.050Z,44.62
2022-10-07T15:04:10.476Z,44.34
2022-10-07T15:06:39.224Z,43.59
2022-10-07T15:09:06.987Z,42.64
2022-10-07T15:11:36.059Z,42.54
2022-10-07T15:14:03.837Z,41.69
2022-10-07T15:16:32.338Z,40.94
2022-10-07T15:19:02.542Z,40.43
2022-10-07T15:21:30.999Z,40.75
2022-10-07T15:23:58.920Z,40.81
2022-10-07T15:26:26.864Z,40.62
2022-10-07T15:28:55.372Z,40.06
2022-10-07T15:31:23.772Z,40.63
2022-10-07T15:33:51.656Z,41.52
2022-10-07T15:36:19.481Z,43.32
2022-10-07T15:38:47.182Z,44.15
2022-10-07T15:41:15.138Z,46.01
2022-10-07T15:43:43.967Z,47.21
2022-10-07T15:46:13.339Z,48.32
2022-10-07T15:48:41.174Z,49.08
2022-10-07T15:51:09.103Z,49.89
2022-10-07T15:53:36.999Z,50.35
2022-10-07T15:56:07.832Z,51.01
2022-10-07T15:58:35.694Z,50.98
2022-10-07T16:01:03.612Z,51.53
2022-10-07T16:03:31.454Z,51.49
2022-10-07T16:06:00.698Z,52.43
2022-10-07T16:08:28.764Z,52.66
2022-10-07T16:10:56.626Z,52.49
2022-10-07T16:13:24.514Z,52.97
2022-10-07T16:15:52.447Z,53.35
2022-10-07T16:18:20.537Z,53.08
2022-10-07T16:20:48.769Z,53.82
2022-10-07T16:23:16.664Z,53.75
2022-10-07T16:25:44.494Z,54.16
2022-10-07T16:28:30.109Z,54.14
2022-10-07T16:30:58.737Z,54.57
2022-10-07T16:33:27.313Z,54.83
2022-10-07T16:35:55.749Z,55.08
2022-10-07T16:38:23.674Z,55.07
2022-10-07T16:40:51.615Z,55.81
2022-10-07T16:43:20.186Z,55.84
2022-10-07T16:45:47.963Z,55.71
2022-10-07T16:48:17.647Z,55.92
2022-10-07T16:50:47.333Z,56.12
2022-10-07T16:53:15.128Z,56.25
2022-10-07T16:55:44.059Z,56.79
2022-10-07T16:58:12.077Z,57.05
2022-10-07T17:00:41.444Z,57.10
2022-10-07T17:03:09.800Z,57.39
2022-10-07T17:05:39.460Z,57.51
2022-10-07T17:08:08.015Z,57.54
2022-10-07T17:10:36.348Z,57.97
2022-10-07T17:13:04.921Z,58.55
2022-10-07T17:15:32.787Z,57.98
2022-10-07T17:18:00.665Z,59.03
2022-10-07T17:20:29.387Z,58.56
2022-10-07T17:22:57.093Z,58.91
2022-10-07T17:25:24.932Z,59.21
2022-10-07T17:27:52.715Z,59.42
2022-10-07T17:30:20.594Z,59.30
2022-10-07T17:32:49.930Z,59.33
2022-10-07T17:35:18.434Z,58.97
2022-10-07T17:37:46.493Z,59.82
2022-10-07T17:40:14.650Z,59.37
2022-10-07T17:42:42.639Z,59.41
2022-10-07T17:45:12.776Z,59.86
2022-10-07T17:47:40.546Z,60.02
2022-10-07T17:50:08.402Z,59.87
2022-10-07T17:52:36.363Z,60.11
2022-10-07T17:55:04.498Z,59.87
2022-10-07T17:57:34.091Z,60.23
2022-10-07T18:00:04.769Z,60.26
2022-10-07T18:02:33.071Z,60.83
2022-10-07T18:05:02.055Z,60.79
2022-10-07T18:07:30.932Z,60.73
2022-10-07T18:09:59.932Z,61.56
2022-10-07T18:12:45.125Z,61.51
2022-10-07T18:15:22.217Z,61.86
2022-10-07T18:17:51.083Z,61.60
2022-10-07T18:20:18.930Z,61.58
2022-10-07T18:22:46.707Z,61.96
2022-10-07T18:25:14.525Z,62.23
2022-10-07T18:27:43.643Z,61.76
2022-10-07T18:30:11.682Z,61.35
2022-10-07T18:32:39.956Z,61.87
2022-10-07T18:35:07.985Z,61.28
2022-10-07T18:37:36.380Z,61.60
2022-10-07T18:40:04.782Z,61.22
2022-10-07T18:42:32.648Z,62.08
2022-10-07T18:45:01.386Z,61.93
2022-10-07T18:47:29.249Z,61.98
2022-10-07T18:49:57.667Z,61.71
2022-10-07T18:52:25.504Z,61.44
2022-10-07T18:54:53.452Z,61.71
2022-10-07T18:57:22.428Z,61.37
2022-10-07T18:59:50.233Z,61.55
2022-10-07T19:02:18.490Z,61.87
2022-10-07T19:04:46.259Z,62.54
2022-10-07T19:07:14.052Z,62.21
2022-10-07T19:09:42.402Z,62.15
2022-10-07T19:12:30.123Z,62.34
2022-10-07T19:14:56.955Z,61.64
2022-10-07T19:17:24.834Z,61.98
2022-10-07T19:19:52.630Z,61.91
2022-10-07T19:22:20.794Z,62.93
2022-10-07T19:25:05.799Z,62.09
2022-10-07T19:27:33.630Z,62.13
2022-10-07T19:30:02.093Z,62.34
2022-10-07T19:32:29.927Z,62.56
2022-10-07T19:34:57.792Z,62.83
2022-10-07T19:37:25.659Z,62.65
2022-10-07T19:39:53.521Z,62.53
2022-10-07T19:42:22.585Z,62.98
2022-10-07T19:44:50.357Z,62.98
2022-10-07T19:47:18.685Z,63.59
2022-10-07T19:49:46.690Z,63.44
2022-10-07T19:52:14.964Z,63.09
2022-10-07T19:54:46.411Z,63.74
2022-10-07T19:57:14.321Z,63.66
2022-10-07T19:59:42.082Z,63.40
2022-10-07T20:02:10.102Z,63.54
2022-10-07T20:04:41.596Z,63.05
2022-10-07T20:07:10.071Z,62.81
2022-10-07T20:09:37.918Z,62.73
2022-10-07T20:12:05.872Z,62.62
2022-10-07T20:14:35.616Z,62.75
2022-10-07T20:17:03.630Z,61.87
2022-10-07T20:19:32.193Z,62.24
2022-10-07T20:22:01.578Z,62.37
2022-10-07T20:24:29.318Z,61.82
2022-10-07T20:26:57.865Z,61.96
2022-10-07T20:29:26.323Z,62.11
2022-10-07T20:31:54.853Z,62.62
2022-10-07T20:34:22.782Z,63.23
2022-10-07T20:36:50.599Z,62.68
2022-10-07T20:39:35.939Z,63.25
2022-10-07T20:42:21.351Z,62.68
2022-10-07T20:44:49.925Z,63.26
2022-10-07T20:47:17.700Z,63.44
2022-10-07T20:49:45.594Z,63.58
2022-10-07T20:52:13.503Z,63.76
2022-10-07T20:54:41.922Z,64.01
2022-10-07T20:57:09.677Z,64.05
2022-10-07T20:59:37.480Z,64.26
2022-10-07T21:02:09.500Z,64.66
2022-10-07T21:04:37.629Z,64.29
2022-10-07T21:07:06.056Z,64.76
2022-10-07T21:09:36.578Z,64.73
2022-10-07T21:12:05.301Z,65.46
2022-10-07T21:14:33.038Z,64.57
2022-10-07T21:17:01.473Z,65.14
2022-10-07T21:19:29.390Z,65.51
2022-10-07T21:21:57.404Z,65.28
2022-10-07T21:24:25.401Z,64.95
2022-10-07T21:26:53.140Z,65.17
2022-10-07T21:29:20.936Z,65.11
2022-10-07T21:31:49.531Z,65.20
2022-10-07T21:34:17.498Z,65.45
2022-10-07T21:36:50.406Z,65.00
2022-10-07T21:39:20.788Z,65.10
2022-10-07T21:41:50.299Z,65.41
2022-10-07T21:44:18.031Z,65.66
2022-10-07T21:46:46.483Z,65.68
2022-10-07T21:49:14.265Z,65.95
2022-10-07T21:51:42.007Z,66.20
2022-10-07T21:54:10.026Z,66.25
2022-10-07T21:56:38.316Z,66.23
2022-10-07T21:59:05.974Z,66.15
2022-10-07T22:01:33.863Z,66.22
2022-10-07T22:04:01.618Z,66.26
2022-10-07T22:06:47.222Z,66.37
2022-10-07T22:09:14.986Z,66.27
2022-10-07T22:11:42.900Z,66.45
2022-10-07T22:14:12.808Z,66.41
2022-10-07T22:16:40.828Z,66.22
2022-10-07T22:19:08.465Z,65.70
2022-10-07T22:21:40.262Z,65.56
2022-10-07T22:24:08.429Z,65.44
2022-10-07T22:26:37.953Z,65.24
2022-10-07T22:29:05.654Z,65.41
2022-10-07T22:31:33.727Z,65.31
2022-10-07T22:34:01.771Z,65.08
2022-10-07T22:36:29.186Z,65.00
2022-10-07T22:38:56.867Z,65.07
2022-10-07T22:41:24.495Z,65.08
2022-10-07T22:43:54.462Z,64.90
2022-10-07T22:46:26.571Z,64.67
2022-10-07T22:48:54.689Z,64.48
2022-10-07T22:51:22.292Z,64.59
2022-10-07T22:53:50.373Z,64.46
2022-10-07T22:56:18.080Z,64.39
2022-10-07T22:58:46.038Z,64.28
2022-10-07T23:01:13.629Z,64.37
2022-10-07T23:03:43.887Z,64.36
2022-10-07T23:06:11.595Z,64.16
2022-10-07T23:08:39.244Z,64.28
2022-10-07T23:11:06.875Z,64.13
2022-10-07T23:13:34.537Z,64.45
2022-10-07T23:16:02.248Z,64.37
2022-10-07T23:18:29.961Z,64.33
2022-10-07T23:20:57.946Z,64.53
2022-10-07T23:23:26.376Z,64.78
2022-10-07T23:25:53.960Z,64.95
2022-10-07T23:28:21.868Z,64.48
2022-10-07T23:30:49.562Z,64.94
2022-10-07T23:33:17.529Z,64.99
2022-10-07T23:35:46.736Z,64.82
2022-10-07T23:38:14.434Z,64.91
2022-10-07T23:40:42.196Z,65.29
2022-10-07T23:43:11.602Z,65.88
2022-10-07T23:45:39.549Z,65.62
2022-10-07T23:48:07.330Z,65.88
2022-10-07T23:50:34.947Z,65.87
2022-10-07T23:53:02.684Z,65.60
2022-10-07T23:55:30.304Z,65.88
2022-10-07T23:57:58.333Z,65.96
